createdAt,value
2023-02-14T00:01:12.785Z,62.15
2023-02-14T00:03:40.271Z,60.63
2023-02-14T00:06:09.501Z,65.72
2023-02-14T00:08:36.916Z,71.13
2023-02-14T00:11:05.455Z,66.50
2023-02-14T00:13:32.451Z,62.92
2023-02-14T00:15:59.337Z,60.58
2023-02-14T00:18:49.185Z,67.28
2023-02-14T00:21:16.137Z,64.82
2023-02-14T00:23:43.486Z,67.45
2023-02-14T00:26:15.172Z,69.05
2023-02-14T00:28:43.533Z,71.57
2023-02-14T00:31:10.634Z,67.43
2023-02-14T00:33:37.897Z,65.57
2023-02-14T00:36:07.077Z,62.30
2023-02-14T00:38:34.886Z,75.78
2023-02-14T00:41:02.450Z,68.20
2023-02-14T00:43:29.628Z,72.32
2023-02-14T00:45:57.496Z,64.47
2023-02-14T00:48:24.588Z,73.30
2023-02-14T00:50:51.512Z,66.53
2023-02-14T00:53:18.362Z,74.78
2023-02-14T00:55:47.070Z,68.47
2023-02-14T00:58:15.089Z,78.47
2023-02-14T01:00:41.994Z,89.45
2023-02-14T01:03:08.993Z,81.63
2023-02-14T01:05:35.982Z,79.72
2023-02-14T01:08:04.740Z,85.68
2023-02-14T01:10:31.879Z,71.28
2023-02-14T01:12:58.996Z,78.72
2023-02-14T01:15:27.676Z,71.57
2023-02-14T01:17:54.536Z,78.68
2023-02-14T01:20:22.131Z,73.85
2023-02-14T01:22:49.025Z,76.03
2023-02-14T01:25:16.343Z,71.78
2023-02-14T01:27:43.278Z,74.40
2023-02-14T01:30:11.262Z,67.00
2023-02-14T01:32:38.106Z,70.53
2023-02-14T01:35:05.285Z,72.97
2023-02-14T01:37:32.215Z,72.65
2023-02-14T01:39:59.448Z,73.25
2023-02-14T01:42:27.568Z,74.97
2023-02-14T01:44:59.796Z,74.13
2023-02-14T01:47:28.964Z,83.88
2023-02-14T01:50:00.213Z,68.40
2023-02-14T01:52:34.946Z,77.65
2023-02-14T01:55:08.535Z,73.05
2023-02-14T01:57:46.455Z,75.40
2023-02-14T02:00:32.827Z,69.10
2023-02-14T02:03:01.211Z,70.00
2023-02-14T02:05:28.177Z,71.45
2023-02-14T02:07:59.117Z,73.68
2023-02-14T02:10:28.156Z,67.38
2023-02-14T02:13:00.010Z,64.95
2023-02-14T02:15:31.292Z,68.03
2023-02-14T02:18:19.837Z,59.58
2023-02-14T02:21:16.730Z,66.97
2023-02-14T02:23:54.729Z,70.40
2023-02-14T02:26:49.484Z,71.20
2023-02-14T02:29:53.937Z,69.47
2023-02-14T02:32:48.803Z,67.47
2023-02-14T02:35:21.611Z,73.53
2023-02-14T02:38:07.353Z,75.43
2023-02-14T02:40:46.566Z,73.78
2023-02-14T02:43:49.548Z,70.57
2023-02-14T02:46:42.960Z,72.22
2023-02-14T02:49:47.375Z,79.18
2023-02-14T02:52:46.864Z,77.55
2023-02-14T02:55:21.546Z,79.55
2023-02-14T02:57:51.571Z,84.65
2023-02-14T03:00:21.604Z,84.40
2023-02-14T03:03:11.386Z,81.45
2023-02-14T03:05:38.701Z,77.78
2023-02-14T03:08:06.117Z,74.60
2023-02-14T03:10:38.192Z,80.78
2023-02-14T03:28:20.009Z,81.30
2023-02-14T03:31:11.481Z,86.45
2023-02-14T03:34:07.111Z,88.50
2023-02-14T03:36:38.279Z,85.30
2023-02-14T03:39:16.374Z,78.68
2023-02-14T03:41:53.546Z,84.03
2023-02-14T03:44:25.937Z,73.53
2023-02-14T03:46:58.779Z,80.10
2023-02-14T03:49:31.114Z,82.35
2023-02-14T03:52:01.155Z,85.32
2023-02-14T03:54:30.509Z,81.80
2023-02-14T03:57:20.847Z,91.30
2023-02-14T03:59:48.861Z,84.20
2023-02-14T04:02:30.337Z,88.30
2023-02-14T04:08:08.671Z,86.90
2023-02-14T04:10:35.860Z,95.80
2023-02-14T04:13:02.823Z,84.47
2023-02-14T04:15:29.901Z,74.28
2023-02-14T04:18:15.459Z,82.20
2023-02-14T04:20:42.336Z,74.18
2023-02-14T04:23:09.237Z,77.13
2023-02-14T04:25:36.195Z,77.18
2023-02-14T04:28:02.977Z,78.25
2023-02-14T04:30:29.824Z,78.05
2023-02-14T04:32:57.012Z,70.45
2023-02-14T04:35:23.885Z,64.03
2023-02-14T04:37:50.765Z,66.38
2023-02-14T04:40:17.670Z,70.88
2023-02-14T04:42:45.762Z,64.30
2023-02-14T04:45:13.424Z,63.65
2023-02-14T04:47:40.476Z,64.35
2023-02-14T04:50:07.929Z,68.68
2023-02-14T04:52:34.802Z,63.08
2023-02-14T04:55:01.915Z,67.78
2023-02-14T04:57:29.554Z,65.00
2023-02-14T04:59:56.434Z,58.95
2023-02-14T05:02:23.552Z,63.45
2023-02-14T05:04:50.717Z,58.97
2023-02-14T05:07:17.812Z,60.50
2023-02-14T05:09:44.716Z,64.10
2023-02-14T05:12:11.651Z,61.47
2023-02-14T05:14:38.552Z,65.55
2023-02-14T05:17:05.406Z,64.05
2023-02-14T05:19:32.497Z,55.75
2023-02-14T05:21:59.411Z,62.50
2023-02-14T05:24:26.399Z,51.33
2023-02-14T05:26:53.196Z,59.22
2023-02-14T05:29:20.146Z,50.70
2023-02-14T05:31:47.184Z,58.35
2023-02-14T05:34:14.092Z,55.15
2023-02-14T05:36:40.951Z,53.95
2023-02-14T05:39:07.789Z,49.75
2023-02-14T05:41:34.702Z,48.47
2023-02-14T05:44:02.014Z,55.00
2023-02-14T05:46:28.990Z,43.20
2023-02-14T05:48:55.835Z,48.88
2023-02-14T05:51:22.678Z,52.10
2023-02-14T05:53:49.592Z,45.53
2023-02-14T05:56:16.543Z,49.72
2023-02-14T05:58:44.114Z,46.20
2023-02-14T06:01:11.107Z,62.58
2023-02-14T06:03:38.049Z,39.10
2023-02-14T06:06:05.153Z,38.53
2023-02-14T06:08:32.095Z,43.97
2023-02-14T06:10:59.283Z,44.55
2023-02-14T06:13:26.286Z,43.85
2023-02-14T06:15:53.126Z,43.58
2023-02-14T06:18:20.054Z,44.22
2023-02-14T06:20:46.826Z,43.15
2023-02-14T06:23:13.780Z,46.00
2023-02-14T06:25:40.632Z,49.00
2023-02-14T06:28:07.522Z,52.33
2023-02-14T06:30:34.520Z,48.83
2023-02-14T06:33:01.555Z,47.25
2023-02-14T06:35:28.571Z,54.28
2023-02-14T06:37:55.459Z,57.95
2023-02-14T06:40:22.455Z,47.80
2023-02-14T06:42:49.362Z,54.72
2023-02-14T06:45:16.507Z,50.72
2023-02-14T06:47:43.331Z,50.70
2023-02-14T06:50:11.827Z,52.20
2023-02-14T06:52:44.741Z,44.40
2023-02-14T06:55:13.937Z,45.35
2023-02-14T06:57:40.865Z,52.15
2023-02-14T07:00:08.816Z,48.67
2023-02-14T07:02:35.781Z,50.33
2023-02-14T07:05:02.748Z,57.10
2023-02-14T07:07:29.591Z,50.95
2023-02-14T07:09:56.483Z,46.13
2023-02-14T07:12:23.362Z,50.47
2023-02-14T07:14:50.310Z,47.08
2023-02-14T07:17:17.184Z,49.33
2023-02-14T07:19:44.011Z,54.58
2023-02-14T07:22:11.011Z,54.05
2023-02-14T07:24:37.865Z,53.00
2023-02-14T07:27:04.749Z,58.67
2023-02-14T07:29:31.608Z,66.15
2023-02-14T07:31:58.689Z,49.97
2023-02-14T07:34:27.270Z,51.03
2023-02-14T07:36:54.195Z,44.95
2023-02-14T07:39:21.076Z,47.35
2023-02-14T07:41:50.843Z,44.72
2023-02-14T07:44:20.358Z,47.33
2023-02-14T07:46:47.285Z,50.72
2023-02-14T07:49:14.357Z,50.42
2023-02-14T07:51:41.442Z,46.17
2023-02-14T07:54:08.300Z,47.10
2023-02-14T07:56:35.383Z,48.22
2023-02-14T07:59:02.285Z,50.53
2023-02-14T08:01:29.201Z,46.83
2023-02-14T08:03:56.128Z,45.97
2023-02-14T08:06:22.981Z,40.55
2023-02-14T08:08:49.899Z,41.90
2023-02-14T08:11:36.687Z,37.67
2023-02-14T08:14:04.927Z,32.00
2023-02-14T08:16:34.394Z,34.70
2023-02-14T08:19:02.117Z,33.28
2023-02-14T08:21:29.212Z,31.20
2023-02-14T08:23:57.057Z,29.80
2023-02-14T08:26:24.062Z,41.17
2023-02-14T08:28:51.168Z,33.17
2023-02-14T08:31:36.442Z,32.28
2023-02-14T08:34:05.613Z,29.10
2023-02-14T08:36:33.028Z,32.58
2023-02-14T08:38:59.965Z,30.60
2023-02-14T08:41:26.779Z,30.10
2023-02-14T08:43:53.608Z,30.98
2023-02-14T08:46:20.567Z,30.52
2023-02-14T08:48:47.633Z,29.60
2023-02-14T08:51:15.152Z,30.13
2023-02-14T08:53:43.201Z,32.45
2023-02-14T08:56:13.662Z,32.33
2023-02-14T08:58:41.021Z,32.70
2023-02-14T09:01:14.066Z,31.85
2023-02-14T09:03:42.111Z,32.95
2023-02-14T09:06:12.420Z,31.55
2023-02-14T09:08:39.672Z,34.67
2023-02-14T09:11:22.355Z,33.03
2023-02-14T09:13:51.423Z,33.38
2023-02-14T09:16:19.366Z,31.65
2023-02-14T09:18:47.609Z,32.47
2023-02-14T09:21:17.474Z,45.67
2023-02-14T09:23:44.790Z,30.90
2023-02-14T09:26:14.130Z,35.90
2023-02-14T09:28:41.481Z,34.22
2023-02-14T09:31:11.376Z,30.23
2023-02-14T09:33:57.014Z,30.52
2023-02-14T09:36:42.606Z,30.25
2023-02-14T09:39:10.509Z,28.75
2023-02-14T09:41:40.093Z,33.25
2023-02-14T09:44:40.056Z,30.70
2023-02-14T09:47:18.946Z,30.40
2023-02-14T09:49:49.936Z,31.42
2023-02-14T09:52:20.126Z,34.72
2023-02-14T09:54:53.366Z,30.85
2023-02-14T09:57:22.997Z,31.60
2023-02-14T10:00:00.424Z,29.48
2023-02-14T10:02:30.415Z,29.98
2023-02-14T10:05:11.591Z,28.88
2023-02-14T10:08:16.897Z,31.30
2023-02-14T10:10:48.425Z,30.38
2023-02-14T10:13:38.235Z,28.05
2023-02-14T10:16:26.654Z,26.15
2023-02-14T10:19:01.659Z,27.00
2023-02-14T10:21:51.703Z,26.35
2023-02-14T10:24:30.069Z,26.45
2023-02-14T10:29:44.850Z,26.17
2023-02-14T10:32:15.411Z,29.27
2023-02-14T10:34:51.631Z,27.50
2023-02-14T10:37:33.086Z,26.02
2023-02-14T10:40:34.050Z,28.42
2023-02-14T10:43:48.026Z,26.05
2023-02-14T10:46:18.295Z,26.77
2023-02-14T10:49:01.056Z,25.52
2023-02-14T10:51:44.971Z,25.92
2023-02-14T10:54:22.644Z,25.83
2023-02-14T10:56:59.258Z,26.77
2023-02-14T11:00:28.058Z,25.10
2023-02-14T11:02:58.236Z,25.02
2023-02-14T11:05:34.446Z,23.33
2023-02-14T11:08:02.081Z,25.00
2023-02-14T11:10:34.235Z,23.20
2023-02-14T11:13:01.198Z,22.25
2023-02-14T11:15:35.733Z,23.15
2023-02-14T11:18:23.114Z,21.85
2023-02-14T11:21:04.356Z,22.70
2023-02-14T11:23:37.722Z,24.38
2023-02-14T11:26:10.434Z,22.57
2023-02-14T11:28:50.447Z,21.90
2023-02-14T11:31:26.880Z,23.58
2023-02-14T11:33:54.520Z,23.83
2023-02-14T11:36:21.823Z,24.52
2023-02-14T11:38:58.443Z,24.75
2023-02-14T11:41:26.111Z,21.95
2023-02-14T11:44:09.560Z,23.38
2023-02-14T11:46:51.072Z,22.15
2023-02-14T11:49:34.202Z,23.92
2023-02-14T11:52:16.351Z,23.60
2023-02-14T11:54:45.062Z,28.50
2023-02-14T11:57:27.909Z,23.08
2023-02-14T11:59:59.869Z,22.23
2023-02-14T12:02:32.937Z,21.85
2023-02-14T12:05:22.163Z,22.15
2023-02-14T12:07:52.457Z,21.45
2023-02-14T12:10:23.332Z,22.38
2023-02-14T12:12:56.730Z,21.83
2023-02-14T12:15:37.651Z,22.42
2023-02-14T12:18:26.141Z,20.95
2023-02-14T12:21:21.547Z,23.77
2023-02-14T12:24:00.470Z,21.42
2023-02-14T12:26:36.360Z,22.13
2023-02-14T12:29:09.279Z,20.35
2023-02-14T12:31:36.226Z,20.17
2023-02-14T12:34:04.571Z,20.05
2023-02-14T12:36:58.036Z,21.42
2023-02-14T12:39:24.837Z,20.90
2023-02-14T12:42:11.786Z,21.67
2023-02-14T12:45:03.116Z,21.58
2023-02-14T12:47:33.130Z,18.55
2023-02-14T12:50:23.636Z,23.33
2023-02-14T12:52:56.708Z,20.83
2023-02-14T12:55:55.812Z,22.10
2023-02-14T12:58:29.006Z,21.90
2023-02-14T13:01:29.087Z,20.63
2023-02-14T13:04:30.623Z,21.80
2023-02-14T13:07:22.412Z,22.20
2023-02-14T13:10:05.912Z,21.95
2023-02-14T13:12:44.842Z,22.80
2023-02-14T13:15:33.662Z,19.08
2023-02-14T13:18:07.534Z,21.25
2023-02-14T13:20:44.756Z,20.60
2023-02-14T13:23:28.737Z,19.73
2023-02-14T13:26:03.860Z,18.58
2023-02-14T13:28:31.695Z,21.35
2023-02-14T13:31:00.942Z,19.83
2023-02-14T13:33:38.150Z,20.35
2023-02-14T13:36:12.366Z,21.33
2023-02-14T13:38:45.935Z,20.25
2023-02-14T13:41:15.602Z,21.37
2023-02-14T13:43:51.121Z,19.40
2023-02-14T13:46:30.515Z,18.65
2023-02-14T13:49:04.543Z,19.73
2023-02-14T13:51:53.578Z,22.13
2023-02-14T13:54:40.856Z,21.17
2023-02-14T13:57:31.717Z,22.30
2023-02-14T14:00:17.449Z,20.17
2023-02-14T14:02:56.185Z,20.05
2023-02-14T14:05:42.818Z,29.58
2023-02-14T14:08:25.142Z,19.58
2023-02-14T14:10:56.670Z,20.85
2023-02-14T14:13:42.247Z,25.05
2023-02-14T14:16:25.662Z,22.15
2023-02-14T14:19:00.282Z,23.25
2023-02-14T14:21:44.734Z,21.48
2023-02-14T14:24:26.262Z,33.10
2023-02-14T14:27:12.971Z,22.38
2023-02-14T14:30:04.083Z,21.98
2023-02-14T14:32:36.578Z,21.65
2023-02-14T14:35:16.872Z,21.98
2023-02-14T14:37:50.111Z,22.35
2023-02-14T14:40:25.120Z,24.05
2023-02-14T14:42:53.216Z,22.55
2023-02-14T14:45:26.457Z,23.63
2023-02-14T14:47:56.668Z,20.15
2023-02-14T14:50:29.786Z,21.45
2023-02-14T14:53:11.733Z,21.00
2023-02-14T14:55:44.835Z,21.40
2023-02-14T14:58:33.885Z,21.88
2023-02-14T15:01:00.981Z,24.13
2023-02-14T15:03:29.393Z,21.80
2023-02-14T15:06:22.896Z,19.63
2023-02-14T15:08:52.573Z,20.75
2023-02-14T15:11:47.742Z,20.58
2023-02-14T15:30:03.977Z,21.48
2023-02-14T15:32:34.605Z,23.67
2023-02-14T15:35:04.473Z,24.75
2023-02-14T15:37:31.816Z,31.30
2023-02-14T15:39:59.980Z,22.92
2023-02-14T15:42:33.763Z,22.33
2023-02-14T15:45:17.002Z,23.63
2023-02-14T15:47:47.686Z,23.33
2023-02-14T15:50:25.260Z,23.77
2023-02-14T15:53:02.904Z,24.08
2023-02-14T15:55:31.013Z,23.27
2023-02-14T15:58:07.445Z,25.35
2023-02-14T16:00:35.572Z,27.80
2023-02-14T16:03:07.451Z,28.15
2023-02-14T16:05:34.844Z,23.85
2023-02-14T16:08:08.133Z,23.02
2023-02-14T16:10:37.270Z,26.95
2023-02-14T16:13:09.359Z,28.38
2023-02-14T16:15:38.700Z,30.33
2023-02-14T16:18:33.715Z,28.13
2023-02-14T16:21:21.102Z,29.92
2023-02-14T16:24:08.105Z,25.65
2023-02-14T16:26:38.104Z,24.13
2023-02-14T16:29:06.932Z,24.95
2023-02-14T16:31:34.591Z,25.10
2023-02-14T16:34:01.983Z,27.42
2023-02-14T16:36:34.058Z,28.00
2023-02-14T16:39:05.715Z,26.73
2023-02-14T16:41:34.576Z,25.98
2023-02-14T16:44:01.594Z,26.02
2023-02-14T16:46:35.270Z,25.00
2023-02-14T16:49:02.319Z,26.98
2023-02-14T16:51:32.967Z,32.47
2023-02-14T16:54:04.129Z,24.30
2023-02-14T16:56:38.517Z,24.45
2023-02-14T17:01:32.765Z,23.35
2023-02-14T17:04:00.302Z,24.50
2023-02-14T17:06:30.581Z,23.42
2023-02-14T17:09:00.567Z,23.50
2023-02-14T17:11:29.973Z,23.42
2023-02-14T17:13:57.097Z,23.17
2023-02-14T17:16:24.066Z,25.20
2023-02-14T17:18:52.105Z,25.20
2023-02-14T17:21:23.321Z,28.40
2023-02-14T17:23:50.270Z,23.23
2023-02-14T17:26:18.867Z,25.33
2023-02-14T17:28:46.671Z,26.80
2023-02-14T17:31:14.386Z,24.58
2023-02-14T17:33:41.406Z,23.67
2023-02-14T17:36:13.148Z,26.52
2023-02-14T17:38:43.529Z,24.33
2023-02-14T17:41:18.746Z,28.45
2023-02-14T17:43:46.275Z,27.05
2023-02-14T17:46:16.362Z,27.73
2023-02-14T17:48:46.250Z,27.95
2023-02-14T17:51:14.885Z,26.13
2023-02-14T17:53:42.394Z,26.33
2023-02-14T17:56:14.865Z,26.90
2023-02-14T17:58:41.840Z,25.83
2023-02-14T18:01:11.485Z,25.17
2023-02-14T18:03:39.183Z,27.73
2023-02-14T18:06:06.845Z,27.25
2023-02-14T18:08:39.592Z,29.80
2023-02-14T18:11:08.524Z,27.73
2023-02-14T18:13:35.794Z,29.45
2023-02-14T18:16:05.813Z,28.58
2023-02-14T18:18:32.888Z,29.67
2023-02-14T18:21:02.215Z,25.75
2023-02-14T18:23:31.288Z,26.55
2023-02-14T18:26:09.950Z,27.85
2023-02-14T18:28:37.103Z,28.42
2023-02-14T18:31:09.020Z,28.92
2023-02-14T18:33:36.858Z,28.92
2023-02-14T18:36:12.275Z,28.00
2023-02-14T18:38:40.403Z,29.58
2023-02-14T18:41:09.569Z,27.85
2023-02-14T18:43:36.936Z,30.30
2023-02-14T18:46:16.522Z,28.42
2023-02-14T18:48:44.073Z,31.35
2023-02-14T18:51:31.550Z,32.72
2023-02-14T18:53:59.954Z,29.20
2023-02-14T18:56:34.169Z,29.48
2023-02-14T18:59:04.148Z,32.33
2023-02-14T19:01:44.196Z,30.75
2023-02-14T19:04:13.361Z,30.05
2023-02-14T19:06:41.844Z,29.55
2023-02-14T19:09:11.348Z,31.98
2023-02-14T19:11:39.397Z,31.58
2023-02-14T19:14:10.141Z,33.13
2023-02-14T19:16:53.597Z,30.45
2023-02-14T19:19:20.513Z,29.35
2023-02-14T19:21:47.629Z,29.40
2023-02-14T19:24:18.538Z,31.77
2023-02-14T19:26:46.580Z,28.65
2023-02-14T19:29:15.858Z,31.70
2023-02-14T19:31:45.449Z,28.52
2023-02-14T19:34:29.929Z,28.88
2023-02-14T19:36:59.829Z,31.55
2023-02-14T19:39:31.300Z,29.70
2023-02-14T19:41:59.504Z,29.80
2023-02-14T19:44:28.806Z,30.40
2023-02-14T19:46:56.674Z,28.60
2023-02-14T19:49:23.835Z,30.52
2023-02-14T19:51:53.526Z,32.08
2023-02-14T19:54:25.675Z,31.40
2023-02-14T19:56:53.953Z,33.58
2023-02-14T19:59:22.747Z,32.45
2023-02-14T20:01:52.264Z,32.58
2023-02-14T20:04:23.162Z,34.42
2023-02-14T20:06:51.207Z,35.25
2023-02-14T20:09:19.311Z,33.13
2023-02-14T20:11:51.730Z,32.17
2023-02-14T20:14:20.033Z,35.03
2023-02-14T20:16:47.926Z,36.28
2023-02-14T20:19:17.652Z,32.78
2023-02-14T20:21:46.161Z,31.70
2023-02-14T20:24:16.438Z,32.63
2023-02-14T20:26:43.640Z,34.05
2023-02-14T20:29:11.259Z,32.13
2023-02-14T20:31:45.216Z,33.17
2023-02-14T20:34:13.324Z,34.75
2023-02-14T20:36:41.562Z,30.90
2023-02-14T20:39:10.701Z,31.63
2023-02-14T20:41:37.910Z,29.45
2023-02-14T20:44:08.115Z,32.78
2023-02-14T20:46:35.722Z,30.63
2023-02-14T20:49:05.544Z,31.75
2023-02-14T20:51:33.339Z,30.20
2023-02-14T20:54:03.097Z,30.13
2023-02-14T20:56:30.306Z,32.22
2023-02-14T20:58:57.146Z,30.27
2023-02-14T21:01:25.155Z,31.08
2023-02-14T21:03:53.776Z,30.67
2023-02-14T21:06:23.065Z,30.80
2023-02-14T21:08:50.461Z,30.70
2023-02-14T21:11:19.188Z,29.65
2023-02-14T21:13:46.781Z,27.75
2023-02-14T21:16:16.387Z,29.15
2023-02-14T21:18:47.968Z,27.73
2023-02-14T21:21:26.077Z,28.27
2023-02-14T21:23:53.435Z,28.27
2023-02-14T21:26:21.487Z,29.65
2023-02-14T21:28:48.531Z,27.52
2023-02-14T21:31:18.140Z,27.27
2023-02-14T21:33:45.077Z,28.35
2023-02-14T21:36:14.089Z,30.63
2023-02-14T21:38:41.769Z,28.50
2023-02-14T21:41:11.414Z,30.45
2023-02-14T21:43:41.045Z,29.52
2023-02-14T21:46:10.786Z,30.75
2023-02-14T21:48:56.794Z,30.10
2023-02-14T21:51:23.856Z,29.75
2023-02-14T21:53:51.618Z,27.75
2023-02-14T21:56:22.811Z,29.17
2023-02-14T21:58:52.187Z,36.75
2023-02-14T22:01:22.550Z,26.70
2023-02-14T22:03:50.038Z,27.70
2023-02-14T22:06:17.374Z,25.08
2023-02-14T22:08:44.744Z,22.67
2023-02-14T22:11:15.006Z,23.40
2023-02-14T22:13:42.914Z,22.45
2023-02-14T22:16:15.829Z,24.75
2023-02-14T22:18:42.894Z,22.92
2023-02-14T22:21:14.405Z,22.48
2023-02-14T22:23:41.702Z,22.95
2023-02-14T22:26:14.321Z,23.40
2023-02-14T22:28:42.672Z,22.85
2023-02-14T22:31:10.189Z,22.00
2023-02-14T22:33:38.012Z,24.20
2023-02-14T22:36:06.319Z,25.08
2023-02-14T22:38:34.562Z,26.30
2023-02-14T22:41:12.675Z,26.27
2023-02-14T22:43:41.092Z,25.13
2023-02-14T22:46:11.458Z,26.02
2023-02-14T22:48:39.369Z,25.40
2023-02-14T22:51:27.851Z,27.95
2023-02-14T22:54:06.137Z,28.85
2023-02-14T22:56:35.703Z,24.35
2023-02-14T22:59:06.344Z,24.83
2023-02-14T23:01:35.499Z,25.08
2023-02-14T23:04:03.804Z,23.95
2023-02-14T23:06:33.351Z,22.73
2023-02-14T23:09:00.866Z,22.58
2023-02-14T23:11:30.624Z,23.42
2023-02-14T23:14:16.824Z,21.98
2023-02-14T23:17:02.912Z,22.13
2023-02-14T23:19:51.263Z,23.50
2023-02-14T23:22:22.553Z,22.60
2023-02-14T23:24:54.458Z,21.55
2023-02-14T23:27:36.883Z,20.90
2023-02-14T23:30:05.812Z,19.60
2023-02-14T23:32:32.715Z,20.02
2023-02-14T23:34:59.543Z,19.05
2023-02-14T23:37:27.311Z,19.63
2023-02-14T23:39:54.267Z,19.23
2023-02-14T23:42:21.113Z,18.35
2023-02-14T23:44:49.369Z,19.85
2023-02-14T23:47:16.623Z,19.08
2023-02-14T23:49:43.863Z,20.05
2023-02-14T23:52:12.931Z,20.15
2023-02-14T23:54:40.440Z,19.33
2023-02-14T23:57:08.238Z,20.23
2023-02-14T23:59:35.271Z,20.48
